地図

経路データ

SID SEASON NUMBER BASIN SUBBASIN NAME ISO_TIME NATURE LAT LON WMO_WIND WMO_PRES WMO_AGENCY TRACK_TYPE DIST2LAND LANDFALL IFLAG USA_AGENCY USA_ATCF_ID USA_LAT USA_LON USA_RECORD USA_STATUS USA_WIND USA_PRES USA_SSHS USA_R34_NE USA_R34_SE USA_R34_SW USA_R34_NW USA_R50_NE USA_R50_SE USA_R50_SW USA_R50_NW USA_R64_NE USA_R64_SE USA_R64_SW USA_R64_NW USA_POCI USA_ROCI USA_RMW USA_EYE TOKYO_LAT TOKYO_LON TOKYO_GRADE TOKYO_WIND TOKYO_PRES TOKYO_R50_DIR TOKYO_R50_LONG TOKYO_R50_SHORT TOKYO_R30_DIR TOKYO_R30_LONG TOKYO_R30_SHORT TOKYO_LAND CMA_LAT CMA_LON CMA_CAT CMA_WIND CMA_PRES HKO_LAT HKO_LON HKO_CAT HKO_WIND HKO_PRES NEWDELHI_LAT NEWDELHI_LON NEWDELHI_GRADE NEWDELHI_WIND NEWDELHI_PRES NEWDELHI_CI NEWDELHI_DP NEWDELHI_POCI REUNION_LAT REUNION_LON REUNION_TYPE REUNION_WIND REUNION_PRES REUNION_TNUM REUNION_CI REUNION_RMW REUNION_R34_NE REUNION_R34_SE REUNION_R34_SW REUNION_R34_NW REUNION_R50_NE REUNION_R50_SE REUNION_R50_SW REUNION_R50_NW REUNION_R64_NE REUNION_R64_SE REUNION_R64_SW REUNION_R64_NW BOM_LAT BOM_LON BOM_TYPE BOM_WIND BOM_PRES BOM_TNUM BOM_CI BOM_RMW BOM_R34_NE BOM_R34_SE BOM_R34_SW BOM_R34_NW BOM_R50_NE BOM_R50_SE BOM_R50_SW BOM_R50_NW BOM_R64_NE BOM_R64_SE BOM_R64_SW BOM_R64_NW BOM_ROCI BOM_POCI BOM_EYE BOM_POS_METHOD BOM_PRES_METHOD NADI_LAT NADI_LON NADI_CAT NADI_WIND NADI_PRES WELLINGTON_LAT WELLINGTON_LON WELLINGTON_WIND WELLINGTON_PRES DS824_LAT DS824_LON DS824_STAGE DS824_WIND DS824_PRES TD9636_LAT TD9636_LON TD9636_STAGE TD9636_WIND TD9636_PRES TD9635_LAT TD9635_LON TD9635_WIND TD9635_PRES TD9635_ROCI NEUMANN_LAT NEUMANN_LON NEUMANN_CLASS NEUMANN_WIND NEUMANN_PRES MLC_LAT MLC_LON MLC_CLASS MLC_WIND MLC_PRES USA_GUST BOM_GUST BOM_GUST_PER REUNION_GUST REUNION_GUST_PER USA_SEAHGT USA_SEARAD_NE USA_SEARAD_SE USA_SEARAD_SW USA_SEARAD_NW STORM_SPEED STORM_DIR
2000259N20273 2000 83 NA CS GORDON 2000-09-14 12:00:00 TS 19.8000 -87.3000 25 1008 hurdat_atl main 20 20 O_____________ hurdat_atl AL112000 19.8000 -87.3000 TD 25 1008 -1 7 352
2000259N20273 2000 83 NA CS GORDON 2000-09-14 15:00:00 TS 20.1300 -87.3300 main 20 0 P_____________ AL112000 20.1300 -87.3300 TD 25 1007 -1 6 351
2000259N20273 2000 83 NA NA GORDON 2000-09-14 18:00:00 TS 20.4000 -87.4000 25 1007 hurdat_atl main 0 0 O_____________ hurdat_atl AL112000 20.4000 -87.4000 TD 25 1007 -1 5 336
2000259N20273 2000 83 NA NA GORDON 2000-09-14 21:00:00 TS 20.5725 -87.5350 main 0 0 P_____________ AL112000 20.5725 -87.5350 TD 25 1007 -1 4 317
2000259N20273 2000 83 NA NA GORDON 2000-09-15 00:00:00 TS 20.7000 -87.7000 25 1007 hurdat_atl main 0 0 O_____________ hurdat_atl AL112000 20.7000 -87.7000 TD 25 1007 -1 4 315
2000259N20273 2000 83 NA NA GORDON 2000-09-15 03:00:00 TS 20.8424 -87.8202 main 0 0 P_____________ AL112000 20.8424 -87.8202 TD 25 1006 -1 4 317
2000259N20273 2000 83 NA NA GORDON 2000-09-15 06:00:00 TS 21.0000 -88.0000 25 1006 hurdat_atl main 0 0 O_____________ hurdat_atl AL112000 21.0000 -88.0000 TD 25 1006 -1 7 302
2000259N20273 2000 83 NA NA GORDON 2000-09-15 09:00:00 TS 21.2077 -88.4395 main 0 0 P_____________ AL112000 21.2077 -88.4395 TD 25 1005 -1 8 302
2000259N20273 2000 83 NA NA GORDON 2000-09-15 12:00:00 TS 21.4000 -88.7000 25 1004 hurdat_atl main 0 0 O_____________ hurdat_atl AL112000 21.4000 -88.7000 TD 25 1004 -1 3 11
2000259N20273 2000 83 NA NA GORDON 2000-09-15 15:00:00 TS 21.4626 -88.3846 main 0 0 P_____________ AL112000 21.4626 -88.3846 TD 27 1004 -1 9 77
2000259N20273 2000 83 NA GM GORDON 2000-09-15 18:00:00 TS 21.6000 -87.8000 30 1004 hurdat_atl main 11 11 O_____________ hurdat_atl AL112000 21.6000 -87.8000 TD 30 1004 -1 13 63
2000259N20273 2000 83 NA GM GORDON 2000-09-15 21:00:00 TS 22.0355 -87.1912 main 56 56 P_____________ AL112000 22.0355 -87.1912 TD 35 1002 0 14 49
2000259N20273 2000 83 NA GM GORDON 2000-09-16 00:00:00 TS 22.5000 -86.7000 40 1000 hurdat_atl main 116 116 O_____________ hurdat_atl AL112000 22.5000 -86.7000 TS 40 1000 0 9 39
2000259N20273 2000 83 NA GM GORDON 2000-09-16 03:00:00 TS 22.7221 -86.5892 main 140 140 P_____________ AL112000 22.7221 -86.5892 TS 45 998 0 4 12
2000259N20273 2000 83 NA GM GORDON 2000-09-16 06:00:00 TS 22.9000 -86.6000 50 997 hurdat_atl main 161 161 O_____________ hurdat_atl AL112000 22.9000 -86.6000 TS 50 997 0 5 13
2000259N20273 2000 83 NA GM GORDON 2000-09-16 09:00:00 TS 23.1700 -86.4724 main 196 196 P_____________ AL112000 23.1700 -86.4724 TS 52 994 0 7 25
2000259N20273 2000 83 NA GM GORDON 2000-09-16 12:00:00 TS 23.5000 -86.3000 55 992 hurdat_atl main 223 223 O_____________ hurdat_atl AL112000 23.5000 -86.3000 TS 55 992 0 8 25
2000259N20273 2000 83 NA GM GORDON 2000-09-16 15:00:00 TS 23.8775 -86.1149 main 248 248 P_____________ AL112000 23.8775 -86.1149 TS 57 987 0 9 25
2000259N20273 2000 83 NA GM GORDON 2000-09-16 18:00:00 TS 24.3000 -85.9000 60 983 hurdat_atl main 263 263 O_____________ hurdat_atl AL112000 24.3000 -85.9000 TS 60 983 0 10 26
2000259N20273 2000 83 NA GM GORDON 2000-09-16 21:00:00 TS 24.7425 -85.6574 main 282 282 P_____________ AL112000 24.7425 -85.6574 TS 62 984 0 10 27
2000259N20273 2000 83 NA GM GORDON 2000-09-17 00:00:00 TS 25.2000 -85.4000 65 985 hurdat_atl main 313 313 O_____________ hurdat_atl AL112000 25.2000 -85.4000 HU 65 985 1 10 27
2000259N20273 2000 83 NA GM GORDON 2000-09-17 03:00:00 TS 25.6424 -85.1572 main 318 264 P_____________ AL112000 25.6424 -85.1572 HU 67 983 1 10 27
2000259N20273 2000 83 NA GM GORDON 2000-09-17 06:00:00 TS 26.1000 -84.9000 70 981 hurdat_atl main 264 212 O_____________ hurdat_atl AL112000 26.1000 -84.9000 HU 70 981 1 11 28
2000259N20273 2000 83 NA GM GORDON 2000-09-17 09:00:00 TS 26.6000 -84.6000 main 212 164 P_____________ AL112000 26.6000 -84.6000 HU 67 984 1 11 28
2000259N20273 2000 83 NA GM GORDON 2000-09-17 12:00:00 TS 27.1000 -84.3000 65 987 hurdat_atl main 164 117 O_____________ hurdat_atl AL112000 27.1000 -84.3000 HU 65 987 1 11 28
2000259N20273 2000 83 NA GM GORDON 2000-09-17 15:00:00 TS 27.5574 -84.0348 main 113 88 P_____________ AL112000 27.5574 -84.0348 HU 65 986 1 10 26
2000259N20273 2000 83 NA GM GORDON 2000-09-17 18:00:00 TS 28.0000 -83.8000 65 985 hurdat_atl main 89 81 O_____________ hurdat_atl AL112000 28.0000 -83.8000 HU 65 985 1 10 23
2000259N20273 2000 83 NA GM GORDON 2000-09-17 21:00:00 TS 28.4602 -83.5930 main 90 44 P_____________ AL112000 28.4602 -83.5930 HU 62 987 0 10 21
2000259N20273 2000 83 NA GM GORDON 2000-09-18 00:00:00 TS 28.9000 -83.4000 60 989 hurdat_atl main 44 9 O_____________ hurdat_atl AL112000 28.9000 -83.4000 TS 60 989 0 9 22
2000259N20273 2000 83 NA GM GORDON 2000-09-18 03:00:00 TS 29.3000 -83.2000 55 991 hurdat_atl main 9 0 O_____________ hurdat_atl AL112000 29.3000 -83.2000 L TS 55 991 0 10 21
2000259N20273 2000 83 NA NA GORDON 2000-09-18 06:00:00 TS 29.8000 -83.0000 40 1000 hurdat_atl main 0 0 O_____________ hurdat_atl AL112000 29.8000 -83.0000 TS 40 1000 0 12 22
2000259N20273 2000 83 NA NA GORDON 2000-09-18 09:00:00 TS 30.3728 -82.6874 main 0 0 P_____________ AL112000 30.3728 -82.6874 TS 35 1003 0 13 27
2000259N20273 2000 83 NA NA GORDON 2000-09-18 12:00:00 TS 31.0000 -82.3000 30 1006 hurdat_atl main 0 0 O_____________ hurdat_atl AL112000 31.0000 -82.3000 TD 30 1006 -1 14 26
2000259N20273 2000 83 NA NA GORDON 2000-09-18 15:00:00 TS 31.6495 -81.9440 main 0 0 P_____________ AL112000 31.6495 -81.9440 TD 27 1008 -1 15 28
2000259N20273 2000 83 NA NA GORDON 2000-09-18 18:00:00 ET 32.3000 -81.5000 25 1011 hurdat_atl main 0 0 O_____________ hurdat_atl AL112000 32.3000 -81.5000 EX 25 1011 -4 15 36
2000259N20273 2000 83 NA NA GORDON 2000-09-18 21:00:00 ET 32.8853 -80.8794 main 0 0 P_____________ AL112000 32.8853 -80.8794 EX 25 1011 -4 16 42
2000259N20273 2000 83 NA NA GORDON 2000-09-19 00:00:00 ET 33.5000 -80.2000 25 1011 hurdat_atl main 0 0 O_____________ hurdat_atl AL112000 33.5000 -80.2000 EX 25 1011 -4 17 40
2000259N20273 2000 83 NA NA GORDON 2000-09-19 03:00:00 ET 34.1900 -79.5619 main 0 0 P_____________ AL112000 34.1900 -79.5619 EX 22 1011 -4 18 33
2000259N20273 2000 83 NA NA GORDON 2000-09-19 06:00:00 ET 35.0000 -79.0000 20 1011 hurdat_atl main 0 0 O_____________ hurdat_atl AL112000 35.0000 -79.0000 EX 20 1011 -4 20 22
2000259N20273 2000 83 NA NA GORDON 2000-09-19 09:00:00 ET 35.9979 -78.6707 main 0 0 P_____________ AL112000 35.9979 -78.6707 EX 20 1010 -4 21 18
2000259N20273 2000 83 NA NA GORDON 2000-09-19 12:00:00 ET 37.0000 -78.2000 20 1010 hurdat_atl main 0 0 O_____________ hurdat_atl AL112000 37.0000 -78.2000 EX 20 1010 -4 21 33
2000259N20273 2000 83 NA NA GORDON 2000-09-19 15:00:00 ET 37.7892 -77.1904 main 0 0 P_____________ AL112000 37.7892 -77.1904 EX 22 1009 -4 23 49
2000259N20273 2000 83 NA NA GORDON 2000-09-19 18:00:00 ET 38.5000 -76.0000 25 1008 hurdat_atl main 0 0 O_____________ hurdat_atl AL112000 38.5000 -76.0000 EX 25 1008 -4 23 50
2000259N20273 2000 83 NA NA GORDON 2000-09-19 21:00:00 ET 39.2487 -74.9824 main 0 0 P_____________ AL112000 39.2487 -74.9824 EX 25 1007 -4 22 46
2000259N20273 2000 83 NA NA GORDON 2000-09-20 00:00:00 ET 40.0000 -74.0000 25 1007 hurdat_atl main 8 0 O_____________ hurdat_atl AL112000 40.0000 -74.0000 EX 25 1007 -4 22 43
2000259N20273 2000 83 NA NA GORDON 2000-09-20 03:00:00 ET 40.8230 -73.0380 main 0 0 P_____________ AL112000 40.8230 -73.0380 EX 25 1006 -4 21 45
2000259N20273 2000 83 NA NA GORDON 2000-09-20 06:00:00 ET 41.5000 -72.0000 25 1005 hurdat_atl main 0 0 O_____________ hurdat_atl AL112000 41.5000 -72.0000 EX 25 1005 -4 20 59
2000259N20273 2000 83 NA NA GORDON 2000-09-20 09:00:00 ET 41.8252 -70.7684 main 0 0 P_____________ AL112000 41.8252 -70.7684 EX 27 1005 -4 19 75
2000259N20273 2000 83 NA NA GORDON 2000-09-20 12:00:00 ET 42.0000 -69.5000 30 1005 hurdat_atl main 46 46 O_____________ hurdat_atl AL112000 42.0000 -69.5000 EX 30 1005 -4 19 77
2000259N20273 2000 83 NA NA GORDON 2000-09-20 15:00:00 ET 42.2486 -68.3266 main 146 146 P_____________ AL112000 42.2486 -68.3266 EX 30 1005 -4 18 74
2000259N20273 2000 83 NA NA GORDON 2000-09-20 18:00:00 ET 42.5000 -67.2000 30 1005 hurdat_atl main 160 94 O_____________ hurdat_atl AL112000 42.5000 -67.2000 EX 30 1005 -4 17 73
2000259N20273 2000 83 NA NA GORDON 2000-09-20 21:00:00 ET 42.7491 -66.0768 main 94 56 P_____________ AL112000 42.7491 -66.0768 EX 30 1004 -4 17 73
2000259N20273 2000 83 NA NA GORDON 2000-09-21 00:00:00 ET 43.0000 -65.0000 30 1004 hurdat_atl main 60 60 O_____________ hurdat_atl AL112000 43.0000 -65.0000 EX 30 1004 -4 16 72
2000259N20273 2000 83 NA NA GORDON 2000-09-21 03:00:00 ET 43.2515 -63.9840 main 84 84 P_____________ AL112000 43.2515 -63.9840 EX 30 1003 -4 15 71
2000259N20273 2000 83 NA NA GORDON 2000-09-21 06:00:00 ET 43.5000 -63.0000 30 1003 hurdat_atl main 110 O_____________ hurdat_atl AL112000 43.5000 -63.0000 EX 30 1003 -4 15 71

IBTrACS Databaseについて

本データベースは、米国NOAAが公開する1842年以降の世界の熱帯低気圧のベストトラックデータアーカイブInternational Best Track Archive for Climate Stewardship (IBTrACS)を、ウェブで閲覧しやすい形式に変換したものです。

最終更新日:2021-12-06